createdAt,value
2019-06-01T00:02:15.583Z,101844.99
2019-06-01T00:04:49.699Z,101849.64
2019-06-01T00:07:26.639Z,101852.24
2019-06-01T00:10:00.262Z,101847.48
2019-06-01T00:12:37.121Z,101848.59
2019-06-01T00:15:19.348Z,101846.20
2019-06-01T00:17:53.704Z,101844.55
2019-06-01T00:20:31.464Z,101841.13
2019-06-01T00:23:20.156Z,101847.13
2019-06-01T00:25:54.582Z,101843.67
2019-06-01T00:28:27.503Z,101846.06
2019-06-01T00:31:01.558Z,101838.44
2019-06-01T00:33:32.904Z,101842.94
2019-06-01T00:36:05.130Z,101847.19
2019-06-01T00:38:41.760Z,101840.19
2019-06-01T00:41:15.002Z,101839.44
2019-06-01T00:43:48.442Z,101843.91
2019-06-01T00:46:23.642Z,101842.94
2019-06-01T00:48:55.772Z,101840.41
2019-06-01T00:51:27.200Z,101843.91
2019-06-01T00:53:58.328Z,101848.69
2019-06-01T00:56:36.918Z,101847.97
2019-06-01T00:59:08.412Z,101846.84
2019-06-01T01:01:39.476Z,101849.69
2019-06-01T01:04:09.999Z,101842.71
2019-06-01T01:06:44.481Z,101853.84
2019-06-01T01:09:17.504Z,101850.02
2019-06-01T01:11:51.221Z,101856.39
2019-06-01T01:14:24.844Z,101856.73
2019-06-01T01:16:58.927Z,101855.39
2019-06-01T01:19:32.871Z,101858.09
2019-06-01T01:22:06.985Z,101856.96
2019-06-01T01:24:43.582Z,101854.48
2019-06-01T01:27:16.011Z,101855.20
2019-06-01T01:29:55.021Z,101861.66
2019-06-01T01:32:33.094Z,101855.25
2019-06-01T01:35:12.508Z,101852.45
2019-06-01T01:37:45.467Z,101854.13
2019-06-01T01:40:23.379Z,101851.49
2019-06-01T01:42:56.622Z,101852.58
2019-06-01T01:45:28.937Z,101852.62
2019-06-01T01:48:01.417Z,101851.12
2019-06-01T01:50:32.250Z,101849.36
2019-06-01T01:53:03.419Z,101851.66
2019-06-01T01:55:35.673Z,101849.84
2019-06-01T01:58:07.844Z,101855.48
2019-06-01T02:00:42.261Z,101854.69
2019-06-01T02:03:13.403Z,101844.94
2019-06-01T02:05:46.996Z,101842.30
2019-06-01T02:08:22.144Z,101841.72
2019-06-01T02:10:53.553Z,101843.73
2019-06-01T02:13:32.191Z,101843.13
2019-06-01T02:16:07.460Z,101842.47
2019-06-01T02:18:38.045Z,101843.28
2019-06-01T02:21:09.625Z,101839.52
2019-06-01T02:23:40.522Z,101840.72
2019-06-01T02:26:13.896Z,101839.30
2019-06-01T02:28:47.994Z,101838.70
2019-06-01T02:31:37.467Z,101843.52
2019-06-01T02:33:58.546Z,101842.74
2019-06-01T02:36:32.743Z,101844.17
2019-06-01T02:39:10.133Z,101844.20
2019-06-01T02:41:51.766Z,101843.22
2019-06-01T02:44:28.682Z,101833.99
2019-06-01T02:47:06.357Z,101830.70
2019-06-01T02:49:41.152Z,101833.50
2019-06-01T02:52:13.735Z,101829.00
2019-06-01T02:54:47.678Z,101837.28
2019-06-01T02:57:24.069Z,101826.98
2019-06-01T02:59:56.294Z,101836.57
2019-06-01T03:02:30.619Z,101837.50
2019-06-01T03:05:10.812Z,101835.11
2019-06-01T03:07:45.854Z,101832.35
2019-06-01T03:10:40.744Z,101834.59
2019-06-01T03:13:16.060Z,101830.23
2019-06-01T03:15:54.497Z,101832.08
2019-06-01T03:18:32.789Z,101830.66
2019-06-01T03:21:06.353Z,101831.12
2019-06-01T03:23:40.510Z,101834.66
2019-06-01T03:26:12.661Z,101823.45
2019-06-01T03:28:45.589Z,101826.53
2019-06-01T03:31:17.261Z,101823.02
2019-06-01T03:33:50.466Z,101827.47
2019-06-01T03:36:25.908Z,101831.30
2019-06-01T03:39:02.247Z,101836.25
2019-06-01T03:41:38.614Z,101831.25
2019-06-01T03:44:13.136Z,101832.18
2019-06-01T03:46:45.405Z,101829.78
2019-06-01T03:49:17.785Z,101831.63
2019-06-01T03:52:00.542Z,101831.84
2019-06-01T03:54:48.585Z,101833.94
2019-06-01T03:58:05.015Z,101833.94
2019-06-01T04:00:37.880Z,101832.19
2019-06-01T04:03:09.282Z,101835.18
2019-06-01T04:05:43.545Z,101831.14
2019-06-01T04:08:14.578Z,101842.63
2019-06-01T04:10:46.137Z,101842.63
2019-06-01T04:13:16.589Z,101844.89
2019-06-01T04:15:55.075Z,101847.02
2019-06-01T04:18:34.959Z,101849.33
2019-06-01T04:21:16.086Z,101840.88
2019-06-01T04:23:49.376Z,101840.73
2019-06-01T04:26:31.571Z,101840.73
2019-06-01T04:29:08.312Z,101844.53
2019-06-01T04:31:41.159Z,101856.22
2019-06-01T04:34:13.103Z,101857.89
2019-06-01T04:36:43.634Z,101861.50
2019-06-01T04:39:18.688Z,101845.15
2019-06-01T04:41:52.821Z,101855.17
2019-06-01T04:44:31.084Z,101860.13
2019-06-01T04:47:06.677Z,101855.83
2019-06-01T04:49:43.268Z,101855.88
2019-06-01T04:52:17.602Z,101862.34
2019-06-01T04:54:57.644Z,101863.79
2019-06-01T04:57:51.894Z,101863.79
2019-06-01T05:00:45.052Z,101868.23
2019-06-01T05:03:26.347Z,101860.67
2019-06-01T05:06:02.432Z,101860.67
2019-06-01T05:08:39.064Z,101864.91
2019-06-01T05:11:11.861Z,101870.33
2019-06-01T05:13:43.321Z,101865.89
2019-06-01T05:16:14.949Z,101865.16
2019-06-01T05:18:49.448Z,101865.16
2019-06-01T05:21:23.099Z,101864.84
2019-06-01T05:23:55.695Z,101864.18
2019-06-01T05:26:27.817Z,101869.46
2019-06-01T05:29:07.717Z,101874.09
2019-06-01T05:31:49.088Z,101871.20
2019-06-01T05:34:21.021Z,101864.60
2019-06-01T05:36:55.270Z,101867.74
2019-06-01T05:39:39.423Z,101859.91
2019-06-01T05:42:14.669Z,101864.80
2019-06-01T05:45:05.948Z,101864.02
2019-06-01T05:47:43.873Z,101854.81
2019-06-01T05:50:18.462Z,101856.41
2019-06-01T05:53:00.717Z,101846.17
2019-06-01T05:55:36.304Z,101845.45
2019-06-01T05:58:15.232Z,101844.14
2019-06-01T06:00:47.854Z,101840.83
2019-06-01T06:03:39.313Z,101841.69
2019-06-01T06:05:55.274Z,101833.33
2019-06-01T06:08:25.569Z,101833.87
2019-06-01T06:10:56.973Z,101834.14
2019-06-01T06:13:27.705Z,101834.83
2019-06-01T06:15:57.941Z,101832.40
2019-06-01T06:18:39.598Z,101832.98
2019-06-01T06:21:09.860Z,101835.21
2019-06-01T06:23:46.045Z,101841.25
2019-06-01T06:26:22.597Z,101845.74
2019-06-01T06:28:54.594Z,101839.38
2019-06-01T06:31:26.815Z,101838.42
2019-06-01T06:33:58.385Z,101835.23
2019-06-01T06:36:32.901Z,101833.79
2019-06-01T06:39:04.794Z,101837.66
2019-06-01T06:41:43.773Z,101834.69
2019-06-01T06:44:16.397Z,101824.98
2019-06-01T06:46:55.082Z,101828.77
2019-06-01T06:49:31.148Z,101838.11
2019-06-01T06:52:02.126Z,101833.70
2019-06-01T06:54:41.912Z,101837.88
2019-06-01T06:57:15.947Z,101829.32
2019-06-01T06:59:55.054Z,101830.53
2019-06-01T07:02:36.659Z,101833.11
2019-06-01T07:05:19.219Z,101834.58
2019-06-01T07:07:53.100Z,101844.34
2019-06-01T07:10:24.241Z,101843.06
2019-06-01T07:12:58.397Z,101836.73
2019-06-01T07:15:47.628Z,101835.49
2019-06-01T07:18:19.421Z,101841.55
2019-06-01T07:20:51.268Z,101839.56
2019-06-01T07:23:23.734Z,101837.91
2019-06-01T07:25:57.347Z,101833.51
2019-06-01T07:28:28.631Z,101838.98
2019-06-01T07:31:00.885Z,101848.11
2019-06-01T07:33:35.101Z,101845.23
2019-06-01T07:36:06.510Z,101853.63
2019-06-01T07:38:39.716Z,101848.13
2019-06-01T07:41:12.870Z,101849.77
2019-06-01T07:43:51.540Z,101847.09
2019-06-01T07:46:22.779Z,101856.91
2019-06-01T07:48:53.116Z,101862.08
2019-06-01T07:51:25.431Z,101857.37
2019-06-01T07:53:56.508Z,101862.34
2019-06-01T07:56:28.723Z,101861.50
2019-06-01T07:59:01.407Z,101861.66
2019-06-01T08:01:33.798Z,101855.33
2019-06-01T08:04:04.919Z,101859.11
2019-06-01T08:06:35.658Z,101852.77
2019-06-01T08:09:08.919Z,101852.77
2019-06-01T08:11:41.232Z,101851.43
2019-06-01T08:14:12.623Z,101844.25
2019-06-01T08:16:46.123Z,101848.58
2019-06-01T08:19:18.449Z,101842.91
2019-06-01T08:21:50.792Z,101841.72
2019-06-01T08:24:24.213Z,101833.83
2019-06-01T08:26:59.322Z,101828.48
2019-06-01T08:29:32.949Z,101833.41
2019-06-01T08:32:06.268Z,101832.05
2019-06-01T08:34:37.037Z,101833.63
2019-06-01T08:37:09.373Z,101834.16
2019-06-01T08:39:41.158Z,101829.47
2019-06-01T08:42:14.222Z,101826.36
2019-06-01T08:44:47.411Z,101829.38
2019-06-01T08:47:19.608Z,101821.61
2019-06-01T08:49:50.052Z,101828.21
2019-06-01T08:52:23.891Z,101816.02
2019-06-01T08:54:54.273Z,101818.52
2019-06-01T08:57:28.832Z,101823.58
2019-06-01T08:59:59.991Z,101811.88
2019-06-01T09:02:35.365Z,101809.08
2019-06-01T09:05:23.312Z,101814.42
2019-06-01T09:07:41.186Z,101809.44
2019-06-01T09:10:13.971Z,101806.04
2019-06-01T09:12:44.733Z,101805.12
2019-06-01T09:15:17.976Z,101805.70
2019-06-01T09:17:51.703Z,101807.28
2019-06-01T09:20:25.402Z,101804.05
2019-06-01T09:22:58.726Z,101803.63
2019-06-01T09:25:29.682Z,101805.27
2019-06-01T09:27:59.971Z,101799.72
2019-06-01T09:30:32.114Z,101801.48
2019-06-01T09:33:10.568Z,101794.67
2019-06-01T09:35:54.353Z,101798.18
2019-06-01T09:38:13.828Z,101800.89
2019-06-01T09:40:45.009Z,101795.80
2019-06-01T09:43:17.307Z,101797.30
2019-06-01T09:45:53.277Z,101796.03
2019-06-01T09:48:24.407Z,101789.02
2019-06-01T09:50:56.343Z,101793.36
2019-06-01T09:53:28.798Z,101786.76
2019-06-01T09:55:59.709Z,101794.42
2019-06-01T09:58:30.234Z,101789.12
2019-06-01T10:01:01.862Z,101789.75
2019-06-01T10:03:36.486Z,101786.13
2019-06-01T10:06:07.726Z,101784.95
2019-06-01T10:08:38.239Z,101781.25
2019-06-01T10:11:08.504Z,101781.75
2019-06-01T10:13:39.018Z,101777.52
2019-06-01T10:16:12.381Z,101782.68
2019-06-01T10:18:47.878Z,101781.60
2019-06-01T10:21:21.795Z,101780.37
2019-06-01T10:23:53.249Z,101776.16
2019-06-01T10:26:27.502Z,101773.17
2019-06-01T10:28:57.752Z,101772.41
2019-06-01T10:31:28.230Z,101767.16
2019-06-01T10:33:58.528Z,101770.90
2019-06-01T10:36:28.865Z,101768.68
2019-06-01T10:38:59.785Z,101777.04
2019-06-01T10:41:31.228Z,101776.81
2019-06-01T10:44:01.550Z,101772.55
2019-06-01T10:46:32.002Z,101768.31
2019-06-01T10:49:02.308Z,101768.67
2019-06-01T10:51:34.073Z,101766.53
2019-06-01T10:54:04.444Z,101763.50
2019-06-01T10:56:34.735Z,101758.28
2019-06-01T10:59:06.736Z,101761.20
2019-06-01T11:01:37.873Z,101757.23
2019-06-01T11:04:10.272Z,101759.68
2019-06-01T11:06:46.046Z,101759.05
2019-06-01T11:09:15.604Z,101751.78
2019-06-01T11:11:53.825Z,101748.31
2019-06-01T11:14:24.783Z,101749.69
2019-06-01T11:16:59.997Z,101742.85
2019-06-01T11:19:31.546Z,101740.45
2019-06-01T11:22:02.968Z,101736.95
2019-06-01T11:24:39.514Z,101739.31
2019-06-01T11:27:16.239Z,101734.09
2019-06-01T11:29:57.712Z,101737.48
2019-06-01T11:32:29.742Z,101733.55
2019-06-01T11:35:13.833Z,101730.15
2019-06-01T11:37:45.137Z,101720.88
2019-06-01T11:40:15.359Z,101722.61
2019-06-01T11:42:46.881Z,101721.00
2019-06-01T11:45:18.394Z,101714.27
2019-06-01T11:47:51.897Z,101715.02
2019-06-01T11:50:23.460Z,101707.01
2019-06-01T11:52:55.936Z,101703.41
2019-06-01T11:55:28.051Z,101700.54
2019-06-01T11:57:58.740Z,101696.40
2019-06-01T12:00:29.312Z,101694.16
2019-06-01T12:03:00.092Z,101695.59
2019-06-01T12:05:33.187Z,101692.85
2019-06-01T12:08:07.075Z,101693.63
2019-06-01T12:10:43.278Z,101693.73
2019-06-01T12:13:16.366Z,101687.27
2019-06-01T12:15:49.468Z,101692.89
2019-06-01T12:18:21.842Z,101681.92
2019-06-01T12:20:54.336Z,101687.56
2019-06-01T12:23:27.568Z,101680.38
2019-06-01T12:25:59.977Z,101676.45
2019-06-01T12:28:37.590Z,101675.13
2019-06-01T12:31:09.746Z,101677.58
2019-06-01T12:33:41.925Z,101664.30
2019-06-01T12:36:12.240Z,101668.30
2019-06-01T12:38:52.956Z,101664.19
2019-06-01T12:41:23.758Z,101656.25
2019-06-01T12:44:14.721Z,101658.60
2019-06-01T12:46:49.012Z,101656.44
2019-06-01T12:49:21.368Z,101648.46
2019-06-01T12:51:53.004Z,101646.42
2019-06-01T12:54:24.710Z,101652.12
2019-06-01T12:56:55.313Z,101647.61
2019-06-01T12:59:25.565Z,101647.13
2019-06-01T13:01:57.823Z,101642.15
2019-06-01T13:04:28.437Z,101629.92
2019-06-01T13:07:01.576Z,101626.54
2019-06-01T13:09:33.291Z,101625.64
2019-06-01T13:12:03.610Z,101632.17
2019-06-01T13:14:33.961Z,101624.67
2019-06-01T13:17:07.792Z,101627.52
2019-06-01T13:19:36.794Z,101616.07
2019-06-01T13:22:10.108Z,101612.81
2019-06-01T13:24:43.719Z,101614.59
2019-06-01T13:27:14.509Z,101614.12
2019-06-01T13:29:45.818Z,101607.23
2019-06-01T13:32:16.131Z,101603.93
2019-06-01T13:34:47.155Z,101605.98
2019-06-01T13:37:19.545Z,101607.72
2019-06-01T13:39:55.780Z,101602.00
2019-06-01T13:42:22.992Z,101596.36
2019-06-01T13:44:53.656Z,101596.22
2019-06-01T13:47:24.428Z,101591.18
2019-06-01T13:49:54.734Z,101591.91
2019-06-01T13:52:26.940Z,101584.84
2019-06-01T13:54:59.464Z,101576.60
2019-06-01T13:57:29.745Z,101578.84
2019-06-01T14:00:00.528Z,101579.50
2019-06-01T14:02:31.700Z,101564.50
2019-06-01T14:05:02.073Z,101550.30
2019-06-01T14:07:32.269Z,101553.05
2019-06-01T14:10:05.896Z,101549.54
2019-06-01T14:12:36.123Z,101547.55
2019-06-01T14:15:07.218Z,101554.61
2019-06-01T14:17:37.591Z,101546.59
2019-06-01T14:20:08.471Z,101542.64
2019-06-01T14:22:41.236Z,101553.94
2019-06-01T14:25:14.958Z,101554.09
2019-06-01T14:27:46.098Z,101548.24
2019-06-01T14:30:17.791Z,101545.13
2019-06-01T14:32:48.835Z,101544.33
2019-06-01T14:35:19.544Z,101540.30
2019-06-01T14:37:51.336Z,101540.09
2019-06-01T14:40:23.624Z,101528.65
2019-06-01T14:42:53.924Z,101534.08
2019-06-01T14:45:26.234Z,101535.20
2019-06-01T14:47:58.610Z,101530.07
2019-06-01T14:50:29.101Z,101524.42
2019-06-01T14:53:05.165Z,101519.02
2019-06-01T14:55:36.983Z,101520.42
2019-06-01T14:58:07.332Z,101523.87
2019-06-01T15:00:37.675Z,101518.55
2019-06-01T15:03:08.490Z,101512.57
2019-06-01T15:05:39.236Z,101509.93
2019-06-01T15:08:10.683Z,101506.79
2019-06-01T15:10:41.535Z,101510.30
2019-06-01T15:13:12.480Z,101512.75
2019-06-01T15:15:43.332Z,101507.93
2019-06-01T15:18:14.487Z,101506.41
2019-06-01T15:20:44.792Z,101508.05
2019-06-01T15:23:16.359Z,101509.53
2019-06-01T15:25:47.299Z,101501.48
2019-06-01T15:28:17.882Z,101498.38
2019-06-01T15:30:50.732Z,101498.90
2019-06-01T15:33:21.250Z,101498.73
2019-06-01T15:35:53.494Z,101499.27
2019-06-01T15:38:26.529Z,101489.84
2019-06-01T15:40:57.962Z,101478.09
2019-06-01T15:43:32.786Z,101474.94
2019-06-01T15:46:10.486Z,101466.59
2019-06-01T15:48:42.706Z,101466.39
2019-06-01T15:51:12.960Z,101461.84
2019-06-01T15:53:44.029Z,101466.70
2019-06-01T15:56:14.479Z,101462.55
2019-06-01T15:58:52.835Z,101462.33
2019-06-01T16:01:18.101Z,101457.13
2019-06-01T16:03:49.428Z,101460.74
2019-06-01T16:06:23.846Z,101456.85
2019-06-01T16:08:57.293Z,101448.91
2019-06-01T16:11:33.349Z,101417.56
2019-06-01T16:14:07.258Z,101446.52
2019-06-01T16:16:41.874Z,101442.06
2019-06-01T16:19:19.189Z,101437.30
2019-06-01T16:22:03.395Z,101437.73
2019-06-01T16:24:49.654Z,101434.89
2019-06-01T16:27:34.351Z,101432.28
2019-06-01T16:30:09.313Z,101426.29
2019-06-01T16:32:41.623Z,101424.06
2019-06-01T16:35:11.953Z,101426.11
2019-06-01T16:37:45.250Z,101431.60
2019-06-01T16:40:18.596Z,101421.75
2019-06-01T16:42:51.782Z,101425.62
2019-06-01T16:45:23.641Z,101421.79
2019-06-01T16:47:55.474Z,101425.75
2019-06-01T16:50:26.634Z,101426.37
2019-06-01T16:53:00.183Z,101420.77
2019-06-01T16:55:32.275Z,101413.19
2019-06-01T16:58:06.589Z,101420.19
2019-06-01T17:00:39.405Z,101412.81
2019-06-01T17:03:11.563Z,101416.13
2019-06-01T17:05:48.388Z,101416.94
2019-06-01T17:08:20.475Z,101411.97
2019-06-01T17:10:50.966Z,101414.99
2019-06-01T17:13:25.594Z,101414.05
2019-06-01T17:16:01.022Z,101416.59
2019-06-01T17:18:38.827Z,101412.56
2019-06-01T17:21:11.762Z,101417.54
2019-06-01T17:23:45.906Z,101417.17
2019-06-01T17:26:21.914Z,101411.05
2019-06-01T17:28:54.244Z,101406.83
2019-06-01T17:31:27.535Z,101407.13
2019-06-01T17:33:58.478Z,101406.80
2019-06-01T17:36:29.226Z,101399.84
2019-06-01T17:38:59.972Z,101397.38
2019-06-01T17:41:30.214Z,101404.36
2019-06-01T17:44:02.640Z,101401.47
2019-06-01T17:46:52.450Z,101395.58
2019-06-01T17:49:22.995Z,101401.97
2019-06-01T17:52:03.571Z,101390.34
2019-06-01T17:54:36.434Z,101398.73
2019-06-01T17:57:09.250Z,101399.47
2019-06-01T17:59:41.327Z,101395.94
2019-06-01T18:02:13.659Z,101391.20
2019-06-01T18:04:47.834Z,101392.40
2019-06-01T18:07:19.568Z,101393.27
2019-06-01T18:09:50.584Z,101393.56
2019-06-01T18:12:23.974Z,101390.59
2019-06-01T18:14:55.708Z,101384.52
2019-06-01T18:17:28.262Z,101383.67
2019-06-01T18:19:59.192Z,101384.54
2019-06-01T18:22:35.661Z,101383.80
2019-06-01T18:25:13.759Z,101392.08
2019-06-01T18:27:48.141Z,101378.70
2019-06-01T18:30:31.131Z,101376.20
2019-06-01T18:33:03.076Z,101378.81
2019-06-01T18:35:34.266Z,101380.97
2019-06-01T18:38:07.790Z,101379.16
2019-06-01T18:40:38.158Z,101376.06
2019-06-01T18:43:12.255Z,101378.72
2019-06-01T18:45:45.168Z,101388.80
2019-06-01T18:48:16.523Z,101377.81
2019-06-01T18:50:46.973Z,101375.14
2019-06-01T18:53:22.974Z,101380.27
2019-06-01T18:55:56.399Z,101375.23
2019-06-01T18:58:28.637Z,101377.84
2019-06-01T19:01:00.509Z,101373.95
2019-06-01T19:03:32.421Z,101368.05
2019-06-01T19:06:11.685Z,101374.73
2019-06-01T19:08:48.205Z,101376.39
2019-06-01T19:11:35.718Z,101369.78
2019-06-01T19:14:06.009Z,101370.19
2019-06-01T19:16:36.708Z,101372.58
2019-06-01T19:19:08.605Z,101368.98
2019-06-01T19:21:39.067Z,101371.00
2019-06-01T19:24:20.055Z,101373.11
2019-06-01T19:26:51.725Z,101367.73
2019-06-01T19:29:29.110Z,101365.53
2019-06-01T19:32:01.973Z,101374.97
2019-06-01T19:34:36.293Z,101374.50
2019-06-01T19:37:15.253Z,101371.65
2019-06-01T19:39:51.052Z,101371.55
2019-06-01T19:42:26.996Z,101373.97
2019-06-01T19:45:28.855Z,101368.17
2019-06-01T19:48:23.205Z,101371.29
2019-06-01T19:50:59.040Z,101373.01
2019-06-01T19:53:36.451Z,101371.30
2019-06-01T19:56:10.817Z,101371.59
2019-06-01T19:58:51.603Z,101370.98
2019-06-01T20:01:26.618Z,101367.30
2019-06-01T20:04:00.212Z,101364.10
2019-06-01T20:09:37.925Z,101364.23
2019-06-01T20:16:16.740Z,101373.40
2019-06-01T20:19:02.053Z,101364.16
2019-06-01T20:21:35.607Z,101371.08
2019-06-01T20:24:17.468Z,101371.95
2019-06-01T20:26:52.569Z,101373.05
2019-06-01T20:29:38.968Z,101372.56
2019-06-01T20:32:15.919Z,101370.72
2019-06-01T20:34:49.041Z,101376.03
2019-06-01T20:37:46.598Z,101367.39
2019-06-01T20:40:25.824Z,101365.80
2019-06-01T20:43:01.488Z,101358.00
2019-06-01T20:45:37.562Z,101358.14
2019-06-01T20:48:10.942Z,101359.88
2019-06-01T20:50:45.036Z,101361.34
2019-06-01T20:53:16.874Z,101360.10
2019-06-01T20:55:50.318Z,101356.55
2019-06-01T20:58:24.799Z,101357.00
2019-06-01T21:01:05.522Z,101352.55
2019-06-01T21:03:42.694Z,101356.13
2019-06-01T21:06:18.208Z,101356.23
2019-06-01T21:08:52.985Z,101358.59
2019-06-01T21:11:27.384Z,101352.03
2019-06-01T21:13:58.915Z,101354.51
2019-06-01T21:16:44.361Z,101351.04
2019-06-01T21:19:18.173Z,101349.05
2019-06-01T21:21:52.649Z,101347.46
2019-06-01T21:24:46.350Z,101345.71
2019-06-01T21:27:30.930Z,101348.92
2019-06-01T21:30:12.822Z,101347.05
2019-06-01T21:32:48.641Z,101343.47
2019-06-01T21:35:23.572Z,101344.97
2019-06-01T21:37:57.574Z,101347.41
2019-06-01T21:40:27.901Z,101341.83
2019-06-01T21:43:22.979Z,101338.84
2019-06-01T21:45:41.337Z,101339.97
2019-06-01T21:48:19.960Z,101340.43
2019-06-01T21:50:59.998Z,101341.41
2019-06-01T21:53:34.864Z,101341.77
2019-06-01T21:56:07.577Z,101345.46
2019-06-01T21:58:43.172Z,101345.68
2019-06-01T22:01:24.902Z,101330.53
2019-06-01T22:04:02.821Z,101335.92
2019-06-01T22:06:35.650Z,101339.98
2019-06-01T22:09:28.735Z,101329.98
2019-06-01T22:12:03.565Z,101331.34
2019-06-01T22:14:55.400Z,101330.96
2019-06-01T22:17:29.920Z,101330.45
2019-06-01T22:20:04.100Z,101327.49
2019-06-01T22:22:46.854Z,101328.33
2019-06-01T22:25:24.480Z,101328.82
2019-06-01T22:27:57.829Z,101329.52
2019-06-01T22:30:31.867Z,101325.77
2019-06-01T22:33:09.230Z,101320.97
2019-06-01T22:35:41.422Z,101321.32
2019-06-01T22:38:16.168Z,101318.34
2019-06-01T22:40:48.017Z,101317.71
2019-06-01T22:43:41.242Z,101319.17
2019-06-01T22:46:04.789Z,101318.44
2019-06-01T22:48:39.244Z,101313.44
2019-06-01T22:51:12.309Z,101309.44
2019-06-01T22:53:57.739Z,101309.19
2019-06-01T22:56:34.399Z,101308.81
2019-06-01T22:59:13.197Z,101309.30
2019-06-01T23:02:11.319Z,101304.31
2019-06-01T23:04:52.192Z,101306.78
2019-06-01T23:07:25.124Z,101299.48
2019-06-01T23:09:59.040Z,101303.45
2019-06-01T23:12:55.810Z,101297.06
2019-06-01T23:15:29.822Z,101291.60
2019-06-01T23:18:00.565Z,101297.61
2019-06-01T23:20:35.142Z,101301.42
2019-06-01T23:23:06.129Z,101294.27
2019-06-01T23:25:39.117Z,101291.63
2019-06-01T23:28:12.521Z,101290.90
2019-06-01T23:30:48.597Z,101294.44
2019-06-01T23:33:38.746Z,101298.59
2019-06-01T23:36:14.091Z,101295.16
2019-06-01T23:38:47.587Z,101294.53
2019-06-01T23:41:41.281Z,101293.38
2019-06-01T23:44:13.558Z,101291.67
2019-06-01T23:46:45.782Z,101290.66
2019-06-01T23:49:23.109Z,101287.52
2019-06-01T23:52:01.759Z,101283.84
2019-06-01T23:54:33.935Z,101280.22
2019-06-01T23:57:10.273Z,101285.63
2019-06-01T23:59:55.196Z,101278.08
